Aviation Digital Data Service (ADDS)

Output produced by TAFs form (0005 UTC 19 July 2018)
found at http://www.aviationweather.gov/adds/tafs/
 
METAR text: RJFG 182330Z 07004KT 330V130 9999 FEW010 27/23 Q1012
Conditions at: RJFG (TANEGASHIMA AIRP, JP) observed 2330 UTC 18 July 2018
Temperature: 27.0°C (81°F)
Dewpoint: 23.0°C (73°F) [RH = 79%]
Pressure (altimeter): 29.88 inches Hg (1012.0 mb)
Winds: from the ENE (70 degrees) at 5 MPH (4 knots; 2.1 m/s)
Visibility: 6 or more miles (10+ km)
Ceiling: at least 12,000 feet AGL
Clouds: few clouds at 1000 feet AGL
Weather: no significant weather observed at this time